Time;durP1;ratioP1;P1;durP2;ratioP2;P2;SDS_P1;SDS_P2;PMS_P1;PMS_P2;Temp;Humidity;BMP_temperature;BMP_pressure;BME280_temperature;BME280_humidity;BME280_pressure;Samples;Min_cycle;Max_cycle;Signal;HPM_P1;HPM_P2
2022/02/05 00:01:47;;;;;;;49.92;27.65;;;;;;;0.14;76.70;95041.06;5089800;28;20208;-80
2022/02/05 00:04:16;;;;;;;54.28;25.45;;;;;;;0.20;77.07;95034.78;5089865;28;20252;-80
2022/02/05 00:06:47;;;;;;;46.72;25.20;;;;;;;0.24;76.68;95051.81;5082185;28;20207;-79
2022/02/05 00:09:20;;;;;;;46.30;22.20;;;;;;;0.25;76.46;95036.25;5076584;28;20211;-80
2022/02/05 00:12:09;;;;;;;45.65;23.17;;;;;;;0.36;76.60;95040.16;5076241;28;20210;-80
2022/02/05 00:14:54;;;;;;;36.58;21.05;;;;;;;0.37;76.23;95041.81;5076506;28;20209;-80
2022/02/05 00:39:33;;;;;;;21.35;14.90;;;;;;;0.26;75.77;95048.25;5060472;28;20536;-80
2022/02/05 00:42:10;;;;;;;28.35;15.15;;;;;;;0.25;75.42;95050.91;5075503;28;20710;-80
2022/02/05 00:44:37;;;;;;;18.13;13.32;;;;;;;0.22;75.41;95053.63;5075713;28;20286;-80
2022/02/05 00:47:06;;;;;;;25.95;15.18;;;;;;;0.16;75.94;95056.47;5075552;28;20206;-80
2022/02/05 00:49:33;;;;;;;28.63;14.07;;;;;;;0.19;76.46;95044.28;5076147;28;20289;-80
2022/02/05 00:52:06;;;;;;;22.20;12.75;;;;;;;0.17;76.49;95045.25;5076160;28;20182;-80
2022/02/05 00:54:34;;;;;;;23.13;12.63;;;;;;;0.15;76.85;95045.31;5056667;28;20233;-80
2022/02/05 00:57:44;;;;;;;25.42;12.75;;;;;;;0.10;76.68;95046.41;5075782;28;20282;-80
2022/02/05 01:00:13;;;;;;;18.52;11.32;;;;;;;0.10;77.71;95026.59;5075755;28;20202;-80
2022/02/05 01:02:41;;;;;;;25.48;13.20;;;;;;;0.06;77.42;95032.81;5075709;28;20294;-80
2022/02/05 01:05:09;;;;;;;21.25;12.52;;;;;;;0.03;77.64;95037.25;5075968;28;20197;-80
2022/02/05 01:07:36;;;;;;;19.42;11.95;;;;;;;0.03;76.84;95024.34;5074782;28;20653;-80
2022/02/05 01:10:04;;;;;;;18.83;11.38;;;;;;;0.05;76.98;95023.38;5075207;28;20194;-79
2022/02/05 01:12:33;;;;;;;21.67;13.80;;;;;;;0.05;76.95;95018.22;5075393;28;20202;-80
2022/02/05 01:15:02;;;;;;;18.00;12.68;;;;;;;0.07;77.69;95010.44;5074987;28;20313;-79
2022/02/05 01:17:33;;;;;;;24.20;12.60;;;;;;;0.09;77.20;95011.19;5056205;28;20685;-80
2022/02/05 01:20:45;;;;;;;17.38;11.75;;;;;;;0.09;77.22;95008.63;5075081;28;20637;-80
2022/02/05 01:23:15;;;;;;;24.85;12.93;;;;;;;0.09;76.97;95009.47;5075466;28;20190;-80
2022/02/05 01:25:47;;;;;;;19.58;12.65;;;;;;;0.10;76.39;95007.72;5074739;28;20202;-80
2022/02/05 01:28:18;;;;;;;14.50;12.15;;;;;;;0.12;76.29;95016.22;5075005;28;20190;-80
2022/02/05 01:30:49;;;;;;;20.20;12.05;;;;;;;0.12;75.97;95013.66;5057093;28;20667;-79
2022/02/05 01:33:40;;;;;;;19.63;11.85;;;;;;;0.15;76.44;95011.78;5056915;28;20217;-79
2022/02/05 01:36:27;;;;;;;23.08;12.52;;;;;;;0.16;76.26;95003.13;5074635;28;20273;-80
2022/02/05 01:53:04;;;;;;;15.38;10.95;;;;;;;0.15;75.86;94995.44;5052153;28;20195;-79
2022/02/05 01:55:44;;;;;;;20.88;12.48;;;;;;;0.17;75.87;95009.97;5051786;28;20298;-80
2022/02/05 01:58:18;;;;;;;19.58;11.20;;;;;;;0.20;75.57;95003.84;5052312;28;20305;-80
2022/02/05 02:06:25;;;;;;;19.10;9.35;;;;;;;0.02;75.88;94994.31;5051901;28;20190;-80
2022/02/05 02:11:51;;;;;;;15.98;10.45;;;;;;;-0.03;76.37;95002.22;4993044;28;20194;-80
2022/02/05 02:20:10;;;;;;;21.38;10.90;;;;;;;0.03;75.28;95003.72;4896582;29;20566;-80
2022/02/05 02:22:45;;;;;;;18.65;11.40;;;;;;;-0.05;75.57;95007.44;4897009;29;20216;-80
2022/02/05 02:25:24;;;;;;;17.92;11.48;;;;;;;-0.05;76.27;95009.19;4896640;29;20708;-79
2022/02/05 02:28:01;;;;;;;21.60;11.30;;;;;;;-0.10;76.30;95011.94;4896595;29;20200;-80
2022/02/05 02:30:32;;;;;;;26.08;12.60;;;;;;;-0.05;76.00;95007.44;4933333;29;20647;-80
2022/02/05 02:33:06;;;;;;;19.67;12.75;;;;;;;-0.05;76.08;95004.84;4934236;29;20212;-81
2022/02/05 02:35:37;;;;;;;21.85;11.52;;;;;;;-0.04;75.73;94998.81;4934525;29;20431;-81
2022/02/05 02:38:10;;;;;;;21.63;12.70;;;;;;;-0.08;75.40;94994.69;4889164;29;20203;-81
2022/02/05 02:40:42;;;;;;;21.30;13.85;;;;;;;0.02;76.14;95000.31;4934540;29;20537;-80
2022/02/05 02:43:15;;;;;;;23.40;11.43;;;;;;;0.02;76.10;95004.63;4934044;29;20197;-80
2022/02/05 02:45:45;;;;;;;18.77;11.02;;;;;;;0.02;75.89;95002.03;4934029;29;20659;-80
2022/02/05 02:48:12;;;;;;;17.52;11.77;;;;;;;0.00;75.08;95004.69;4977681;28;20209;-80
2022/02/05 02:58:51;;;;;;;20.25;11.45;;;;;;;-0.06;75.67;95008.34;5073487;28;20186;-79
2022/02/05 03:01:20;;;;;;;16.45;10.38;;;;;;;-0.04;75.42;95013.44;5073759;28;20190;-80
2022/02/05 03:03:47;;;;;;;16.95;10.13;;;;;;;-0.08;75.94;95015.31;5073428;28;20215;-80
2022/02/05 03:06:14;;;;;;;15.57;9.95;;;;;;;-0.12;76.11;95013.75;5073340;28;20535;-80
2022/02/05 03:08:44;;;;;;;18.08;9.70;;;;;;;-0.12;75.92;95015.50;5073485;28;20199;-79
2022/02/05 03:11:13;;;;;;;19.85;10.00;;;;;;;-0.14;76.15;95014.72;5073335;28;20193;-80
2022/02/05 03:13:39;;;;;;;17.15;11.60;;;;;;;-0.12;76.11;95018.91;5054695;28;20263;-80
2022/02/05 03:16:07;;;;;;;18.58;10.68;;;;;;;-0.08;75.59;95014.47;5073299;28;20226;-80
2022/02/05 03:18:47;;;;;;;25.73;10.90;;;;;;;-0.10;75.66;95011.94;5073325;28;20978;-80
2022/02/05 03:21:14;;;;;;;21.08;10.43;;;;;;;-0.05;76.20;95020.34;5073223;28;20226;-80
2022/02/05 03:23:42;;;;;;;15.75;10.95;;;;;;;-0.05;75.68;95015.19;5073196;28;20552;-80
2022/02/05 03:26:09;;;;;;;16.33;9.98;;;;;;;-0.04;76.07;95016.00;5074085;28;20221;-78
2022/02/05 03:28:37;;;;;;;20.33;10.25;;;;;;;-0.09;76.03;95018.78;5073264;28;20229;-77
2022/02/05 03:31:04;;;;;;;20.30;10.05;;;;;;;-0.12;76.34;95024.06;5073481;28;20194;-80
2022/02/05 03:33:31;;;;;;;16.50;9.65;;;;;;;-0.14;75.94;95014.72;5073453;28;20198;-77
2022/02/05 03:35:58;;;;;;;23.30;11.25;;;;;;;-0.18;76.10;95021.75;5073272;28;20211;-79
2022/02/05 03:38:25;;;;;;;20.23;10.70;;;;;;;-0.21;75.76;95019.31;5073028;28;20183;-80
2022/02/05 03:40:53;;;;;;;16.30;10.80;;;;;;;-0.22;75.48;95027.94;5072388;28;20200;-80
2022/02/05 03:43:20;;;;;;;15.93;9.60;;;;;;;-0.23;75.69;95022.84;5076150;28;20199;-80
2022/02/05 03:45:47;;;;;;;15.65;9.10;;;;;;;-0.21;75.22;95027.03;5076361;28;20209;-80
2022/02/05 03:48:14;;;;;;;13.40;9.38;;;;;;;-0.23;75.45;95026.28;5076576;28;20190;-79
2022/02/05 03:50:41;;;;;;;13.43;8.77;;;;;;;-0.25;75.82;95035.81;5076580;28;20202;-80
2022/02/05 03:53:08;;;;;;;18.38;14.60;;;;;;;-0.25;75.59;95033.22;5041745;28;20206;-80
2022/02/05 03:55:35;;;;;;;19.83;14.35;;;;;;;-0.29;75.15;95031.66;5041159;28;20230;-80
2022/02/05 03:58:05;;;;;;;31.45;17.50;;;;;;;-0.37;74.86;95031.13;5077053;28;20183;-80
2022/02/05 04:00:31;;;;;;;28.08;17.35;;;;;;;-0.40;74.38;95039.81;5076267;28;20214;-81
2022/02/05 04:03:00;;;;;;;34.47;18.67;;;;;;;-0.53;74.30;95038.66;5075907;28;20205;-81
2022/02/05 04:05:27;;;;;;;35.47;20.75;;;;;;;-0.76;75.20;95038.69;5076408;28;20199;-79
2022/02/05 04:07:54;;;;;;;46.03;23.02;;;;;;;-0.95;76.30;95044.53;5075909;28;20203;-79
2022/02/05 04:10:27;;;;;;;44.80;23.52;;;;;;;-1.14;76.46;95037.59;5076052;28;20237;-81
2022/02/05 04:15:58;;;;;;;36.65;21.52;;;;;;;-1.27;78.10;95043.16;5060572;28;20680;-79
2022/02/05 04:18:25;;;;;;;34.60;24.45;;;;;;;-1.25;78.25;95046.53;5075992;28;20289;-80
2022/02/05 04:20:53;;;;;;;37.33;24.13;;;;;;;-1.19;78.31;95047.19;5076107;28;20830;-80
2022/02/05 04:23:20;;;;;;;47.67;22.52;;;;;;;-1.36;78.07;95055.53;5075866;28;20633;-80
2022/02/05 04:25:48;;;;;;;47.80;26.67;;;;;;;-1.42;78.98;95051.47;5076163;28;20206;-80
2022/02/05 04:28:15;;;;;;;44.10;26.10;;;;;;;-1.41;79.76;95047.16;5075928;28;20252;-80
2022/02/05 04:30:43;;;;;;;42.00;26.92;;;;;;;-1.44;78.89;95048.09;5075962;28;20186;-80
2022/02/05 04:33:10;;;;;;;43.22;25.67;;;;;;;-1.45;78.48;95048.13;5076343;28;20527;-81
2022/02/05 04:35:37;;;;;;;46.60;24.40;;;;;;;-1.42;78.79;95055.75;5075639;28;20204;-81
2022/02/05 04:38:06;;;;;;;42.53;22.95;;;;;;;-1.37;77.60;95056.44;5057031;28;20556;-79
2022/02/05 04:40:38;;;;;;;40.78;23.33;;;;;;;-1.34;77.26;95056.31;5075387;28;20723;-80
2022/02/05 04:43:17;;;;;;;48.28;24.17;;;;;;;-1.32;77.07;95062.25;5075749;28;20198;-79
2022/02/05 04:51:50;;;;;;;35.72;23.42;;;;;;;-1.17;77.93;95059.09;5091065;27;20513;-81
2022/02/05 04:57:26;;;;;;;40.30;20.05;;;;;;;-1.14;78.90;95045.31;5047053;28;20607;-80
2022/02/05 05:00:09;;;;;;;32.20;18.73;;;;;;;-1.12;78.89;95040.94;5002052;28;20884;-80
2022/02/05 05:02:48;;;;;;;25.85;16.40;;;;;;;-1.04;78.76;95046.63;5047030;28;20210;-80
2022/02/05 05:05:35;;;;;;;26.08;15.60;;;;;;;-1.05;78.86;95040.66;5047056;28;20198;-80
2022/02/05 05:11:19;;;;;;;15.65;11.73;;;;;;;-1.05;79.40;95055.25;5048350;28;20226;-80
2022/02/05 05:19:27;;;;;;;18.65;11.15;;;;;;;-1.06;79.83;95045.84;5048316;28;20650;-80
2022/02/05 05:21:54;;;;;;;21.33;10.73;;;;;;;-1.00;79.63;95048.19;5048145;28;20614;-81
2022/02/05 05:24:23;;;;;;;14.75;10.57;;;;;;;-0.93;79.98;95047.06;5048148;28;20230;-80
2022/02/05 05:26:50;;;;;;;15.50;9.63;;;;;;;-0.91;79.53;95058.13;5048034;28;20291;-81
2022/02/05 05:29:17;;;;;;;16.15;10.70;;;;;;;-0.87;79.48;95054.53;5047872;28;20633;-79
2022/02/05 05:42:13;;;;;;;11.20;9.18;;;;;;;-1.02;80.33;95047.41;5069736;28;20255;-79
2022/02/05 05:47:36;;;;;;;21.67;10.85;;;;;;;-1.01;80.36;95047.34;5069465;28;20185;-81
2022/02/05 05:50:11;;;;;;;14.73;9.77;;;;;;;-1.04;80.59;95051.78;5069421;28;20273;-78
2022/02/05 05:52:38;;;;;;;16.63;9.48;;;;;;;-0.94;81.17;95059.09;5069577;28;20205;-81
2022/02/05 05:55:05;;;;;;;18.40;9.02;;;;;;;-0.86;81.42;95061.41;5069473;28;20635;-80
2022/02/05 05:57:35;;;;;;;14.93;10.85;;;;;;;-0.74;81.41;95055.78;5051167;28;20216;-80
2022/02/05 06:00:02;;;;;;;17.85;11.75;;;;;;;-0.35;80.97;95052.53;5069328;28;20196;-79
2022/02/05 06:02:28;;;;;;;21.20;11.10;;;;;;;0.06;79.21;95060.34;5058211;28;20293;-79
2022/02/05 06:04:55;;;;;;;18.23;12.02;;;;;;;0.14;76.91;95073.75;5055946;28;20205;-79
2022/02/05 06:07:22;;;;;;;19.83;13.30;;;;;;;-0.28;76.13;95073.78;5056263;28;20196;-80
2022/02/05 06:09:49;;;;;;;21.85;14.60;;;;;;;-0.45;76.10;95092.47;5056374;28;20215;-80
2022/02/05 06:12:16;;;;;;;20.20;14.32;;;;;;;-0.72;77.59;95089.22;5056264;28;20261;-80
2022/02/05 06:14:45;;;;;;;37.58;21.25;;;;;;;-1.03;77.40;95103.22;5055734;28;20195;-79
2022/02/05 06:17:14;;;;;;;46.60;24.83;;;;;;;-1.04;74.56;95103.28;5073046;28;20589;-79
2022/02/05 06:19:42;;;;;;;38.53;22.83;;;;;;;-0.72;73.66;95097.78;5075640;28;20211;-80
2022/02/05 06:22:09;;;;;;;40.67;23.75;;;;;;;-0.25;71.40;95095.09;5076493;28;20202;-80
2022/02/05 06:24:35;;;;;;;34.67;21.35;;;;;;;-0.23;70.07;95092.47;5076216;28;20212;-80
2022/02/05 06:27:02;;;;;;;35.03;22.98;;;;;;;0.29;70.20;95097.19;5076124;28;20554;-80
2022/02/05 06:29:29;;;;;;;36.75;20.20;;;;;;;0.73;68.01;95102.19;5075777;28;20189;-79
2022/02/05 06:31:58;;;;;;;40.53;22.52;;;;;;;1.00;67.22;95104.50;5075841;28;20196;-79
2022/02/05 06:34:25;;;;;;;40.07;25.40;;;;;;;1.26;65.87;95117.09;5075676;28;20199;-79
2022/02/05 06:36:52;;;;;;;50.03;28.80;;;;;;;1.51;66.07;95102.13;5075389;28;20429;-82
2022/02/05 06:39:19;;;;;;;46.63;30.05;;;;;;;1.82;65.39;95106.72;5075329;28;20425;-79
2022/02/05 06:41:47;;;;;;;84.72;45.13;;;;;;;1.82;64.59;95104.13;5075482;28;20183;-79
2022/02/05 06:44:14;;;;;;;94.07;46.92;;;;;;;2.15;63.93;95103.41;5075274;28;20641;-80
2022/02/05 06:46:41;;;;;;;51.93;30.13;;;;;;;2.05;63.99;95112.56;5075544;28;20190;-80
2022/02/05 06:49:10;;;;;;;47.00;29.53;;;;;;;1.92;64.59;95107.09;5074126;28;20433;-80
2022/02/05 06:51:37;;;;;;;39.53;23.52;;;;;;;1.99;64.76;95107.66;5075295;28;20474;-80
2022/02/05 06:54:04;;;;;;;46.42;28.50;;;;;;;1.70;64.97;95122.78;5075112;28;20197;-80
2022/02/05 06:56:31;;;;;;;47.47;27.23;;;;;;;1.78;65.47;95119.88;5075681;28;20191;-80
2022/02/05 06:58:58;;;;;;;49.80;29.73;;;;;;;1.71;65.96;95121.03;5056738;28;20448;-79
2022/02/05 07:01:25;;;;;;;46.50;28.02;;;;;;;1.81;66.36;95112.81;5072172;28;20449;-80
2022/02/05 07:03:52;;;;;;;45.17;28.07;;;;;;;1.78;66.51;95120.72;5063537;28;20214;-80
2022/02/05 07:06:20;;;;;;;42.90;25.85;;;;;;;1.61;66.92;95128.41;5054776;28;20432;-80
2022/02/05 07:08:47;;;;;;;41.78;24.23;;;;;;;1.42;66.96;95124.97;5055414;28;20601;-79
2022/02/05 07:11:14;;;;;;;35.67;23.73;;;;;;;1.54;67.80;95121.84;5054882;28;20342;-80
2022/02/05 07:13:40;;;;;;;38.33;23.37;;;;;;;1.65;67.33;95113.56;5054203;28;20472;-81
2022/02/05 07:16:13;;;;;;;43.60;25.50;;;;;;;1.82;67.56;95116.22;5055172;28;20440;-79
2022/02/05 07:18:50;;;;;;;42.30;26.60;;;;;;;2.08;67.41;95108.06;5054675;28;20524;-85
2022/02/05 07:21:21;;;;;;;40.20;25.70;;;;;;;2.31;67.11;95101.75;5037936;28;20477;-80
2022/02/05 07:24:13;;;;;;;41.63;26.40;;;;;;;2.48;66.79;95111.28;5019635;28;20430;-82
2022/02/05 07:29:25;;;;;;;58.57;33.63;;;;;;;2.95;64.86;95111.47;5054572;28;20414;-82
2022/02/05 07:31:53;;;;;;;63.27;33.70;;;;;;;2.88;64.52;95107.50;5054598;28;20476;-82
2022/02/05 07:34:22;;;;;;;66.80;35.80;;;;;;;2.94;65.09;95109.81;5054547;28;20453;-81
2022/02/05 07:36:49;;;;;;;71.30;38.90;;;;;;;2.96;64.88;95105.38;5054494;28;20438;-83
2022/02/05 07:39:18;;;;;;;72.40;35.87;;;;;;;3.06;65.32;95114.34;5054483;28;20414;-85
2022/02/05 07:41:45;;;;;;;62.63;31.80;;;;;;;3.08;64.96;95122.88;5054846;28;20434;-85
2022/02/05 07:44:15;;;;;;;55.00;28.97;;;;;;;2.97;65.02;95121.75;5055123;28;20441;-86
2022/02/05 07:46:45;;;;;;;46.03;27.03;;;;;;;3.00;65.27;95119.00;5054609;28;20786;-84
2022/02/05 07:49:14;;;;;;;55.07;28.10;;;;;;;2.87;65.04;95129.16;5059345;28;20490;-82
2022/02/05 07:51:41;;;;;;;77.27;40.80;;;;;;;2.70;65.45;95126.59;5074240;28;21137;-84
2022/02/05 07:54:11;;;;;;;66.53;39.57;;;;;;;2.48;66.76;95130.25;5055742;28;20448;-84
2022/02/05 07:56:42;;;;;;;72.87;39.67;;;;;;;2.27;67.86;95128.69;5074412;28;20432;-84
2022/02/05 07:59:09;;;;;;;63.50;36.93;;;;;;;2.28;68.72;95124.34;5074083;28;20520;-86
2022/02/05 08:01:36;;;;;;;65.87;39.53;;;;;;;2.36;67.98;95133.44;5074000;28;20437;-86
2022/02/05 08:04:03;;;;;;;51.60;34.80;;;;;;;2.33;68.43;95131.00;5039267;28;20448;-84
2022/02/05 08:06:30;;;;;;;63.80;40.30;;;;;;;2.36;68.80;95142.97;5074134;28;20451;-84
2022/02/05 08:09:01;;;;;;;62.17;37.80;;;;;;;2.26;69.58;95141.72;5074037;28;20441;-85
2022/02/05 08:11:36;;;;;;;76.30;43.07;;;;;;;2.29;69.39;95141.56;5073977;28;20233;-83
2022/02/05 08:14:08;;;;;;;67.67;39.40;;;;;;;2.12;70.09;95129.47;5073680;28;20431;-84
2022/02/05 08:16:49;;;;;;;71.53;39.53;;;;;;;2.20;70.51;95140.28;5074032;28;20449;-84
2022/02/05 08:19:15;;;;;;;66.60;38.40;;;;;;;2.39;70.79;95137.63;5073614;28;20433;-85
2022/02/05 08:21:42;;;;;;;70.73;42.53;;;;;;;2.40;70.30;95134.13;5073836;28;20445;-85
2022/02/05 08:24:28;;;;;;;76.23;42.80;;;;;;;2.38;69.78;95134.22;5075485;28;20958;-82
2022/02/05 08:26:55;;;;;;;69.87;39.90;;;;;;;2.48;70.64;95124.22;5073466;28;20448;-80
2022/02/05 08:29:23;;;;;;;63.07;40.60;;;;;;;2.53;69.70;95113.63;5073452;28;20503;-82
2022/02/05 08:31:50;;;;;;;65.70;40.53;;;;;;;2.55;70.38;95104.03;5073132;28;20486;-81
2022/02/05 08:34:17;;;;;;;65.23;40.60;;;;;;;2.67;70.02;95114.63;5073561;28;20455;-81
2022/02/05 08:36:45;;;;;;;60.30;36.30;;;;;;;2.84;69.57;95123.28;5073641;28;20432;-83
2022/02/05 08:39:14;;;;;;;66.83;36.70;;;;;;;3.01;69.01;95121.53;5073796;28;20788;-81
2022/02/05 08:41:41;;;;;;;60.50;37.80;;;;;;;3.14;68.87;95106.16;5073187;28;20453;-82
2022/02/05 08:44:08;;;;;;;55.13;33.90;;;;;;;3.29;67.57;95112.31;5073081;28;20912;-80
2022/02/05 08:46:37;;;;;;;61.10;34.80;;;;;;;3.49;66.63;95112.09;5073220;28;20929;-80
2022/02/05 08:49:04;;;;;;;64.90;36.10;;;;;;;3.69;67.34;95119.63;5073094;28;20417;-82
2022/02/05 08:51:32;;;;;;;61.47;34.50;;;;;;;3.83;66.39;95118.03;5073021;28;20483;-81
2022/02/05 08:54:00;;;;;;;56.83;35.17;;;;;;;3.94;65.12;95113.91;5073149;28;20422;-82
2022/02/05 08:56:27;;;;;;;44.60;30.90;;;;;;;3.97;64.90;95102.53;5073265;28;20438;-81
2022/02/05 08:58:56;;;;;;;52.20;32.63;;;;;;;4.14;65.61;95110.22;5072832;28;20430;-82
2022/02/05 09:01:27;;;;;;;54.90;33.43;;;;;;;4.37;65.58;95108.09;5073162;28;20468;-82
2022/02/05 09:04:02;;;;;;;68.43;33.57;;;;;;;4.56;63.52;95114.72;5073019;28;20439;-81
2022/02/05 09:06:34;;;;;;;69.07;34.30;;;;;;;4.66;62.24;95117.66;5073027;28;20509;-82
2022/02/05 09:09:14;;;;;;;66.27;34.20;;;;;;;4.73;62.39;95124.16;5072790;28;20537;-81
2022/02/05 09:11:46;;;;;;;52.57;30.33;;;;;;;4.82;61.27;95125.38;5072715;28;20513;-82
2022/02/05 09:14:17;;;;;;;48.03;26.93;;;;;;;4.84;60.87;95120.91;5072586;28;20473;-81
2022/02/05 09:16:45;;;;;;;53.53;27.63;;;;;;;4.74;60.69;95128.44;5072863;28;21099;-82
2022/02/05 09:19:14;;;;;;;52.00;30.60;;;;;;;4.72;60.19;95127.69;5073013;28;20783;-80
2022/02/05 09:21:41;;;;;;;59.93;32.67;;;;;;;4.89;61.07;95134.47;5073157;28;20433;-80
2022/02/05 09:24:11;;;;;;;57.07;30.37;;;;;;;5.00;60.02;95132.09;5072864;28;20860;-82
2022/02/05 09:26:43;;;;;;;48.50;28.77;;;;;;;5.13;59.62;95132.19;5054488;28;20460;-80
2022/02/05 09:29:14;;;;;;;50.60;31.20;;;;;;;5.31;59.59;95120.69;5072688;28;20446;-80
2022/02/05 09:31:42;;;;;;;48.43;28.60;;;;;;;5.56;59.01;95112.22;5038473;28;20477;-80
2022/02/05 09:34:09;;;;;;;42.63;28.80;;;;;;;5.70;57.55;95112.19;5072698;28;20427;-82
2022/02/05 09:36:39;;;;;;;56.73;31.97;;;;;;;5.84;57.48;95109.59;5073814;28;20441;-81
2022/02/05 09:39:07;;;;;;;50.03;29.07;;;;;;;5.92;57.58;95106.53;5076756;28;20435;-82
2022/02/05 09:41:35;;;;;;;46.57;28.70;;;;;;;6.02;56.36;95106.78;5076522;28;20439;-81
2022/02/05 09:44:02;;;;;;;47.63;28.67;;;;;;;6.02;55.98;95105.00;5076412;28;20458;-81
2022/02/05 09:46:29;;;;;;;51.60;26.67;;;;;;;6.17;55.98;95101.44;5057756;28;20455;-81
2022/02/05 09:48:56;;;;;;;41.90;25.63;;;;;;;6.29;54.92;95104.16;5058094;28;20428;-80
2022/02/05 09:51:26;;;;;;;39.63;22.70;;;;;;;6.40;55.12;95099.13;5056430;28;20494;-79
2022/02/05 09:53:56;;;;;;;35.10;23.27;;;;;;;6.44;55.08;95104.03;5056322;28;20502;-81
2022/02/05 09:56:25;;;;;;;41.73;24.30;;;;;;;6.59;54.76;95088.31;5056346;28;20425;-81
2022/02/05 09:58:53;;;;;;;32.13;20.70;;;;;;;6.60;53.48;95082.97;5056270;28;20445;-81
2022/02/05 10:01:23;;;;;;;32.83;21.53;;;;;;;6.78;54.12;95084.38;5037473;28;20464;-81
2022/02/05 10:03:51;;;;;;;36.97;22.07;;;;;;;6.91;53.50;95065.28;5056129;28;20444;-80
2022/02/05 10:06:23;;;;;;;44.97;25.17;;;;;;;7.01;53.57;95074.19;5056067;28;20460;-81
2022/02/05 10:08:59;;;;;;;39.47;23.47;;;;;;;7.04;53.63;95066.13;5055820;28;20438;-80
2022/02/05 10:11:47;;;;;;;35.77;22.37;;;;;;;6.87;54.28;95058.63;5020920;28;20487;-81
2022/02/05 10:14:15;;;;;;;41.50;25.43;;;;;;;6.71;54.19;95066.66;5055809;28;20451;-81
2022/02/05 10:16:42;;;;;;;34.20;21.60;;;;;;;6.59;55.30;95072.66;5055982;28;20439;-81
2022/02/05 10:19:09;;;;;;;33.30;19.27;;;;;;;6.23;54.44;95061.13;5056501;28;20452;-82
2022/02/05 10:21:36;;;;;;;44.60;23.50;;;;;;;6.34;55.77;95056.03;5055663;28;20905;-81
2022/02/05 10:24:08;;;;;;;37.87;23.90;;;;;;;6.43;53.91;95058.06;5056280;28;20476;-82
2022/02/05 10:26:37;;;;;;;38.77;20.73;;;;;;;6.56;55.05;95052.84;5055695;28;20460;-82
2022/02/05 10:29:09;;;;;;;42.30;22.87;;;;;;;6.64;55.90;95052.31;5055821;28;20432;-80
2022/02/05 10:32:03;;;;;;;32.03;20.30;;;;;;;6.51;55.58;95063.59;5055411;28;20569;-80
2022/02/05 10:34:34;;;;;;;39.00;22.67;;;;;;;6.33;56.02;95056.13;5055868;28;20429;-80
2022/02/05 10:37:11;;;;;;;37.67;23.20;;;;;;;5.77;57.43;95058.81;5055240;28;20536;-81
2022/02/05 10:40:08;;;;;;;39.03;21.60;;;;;;;5.53;59.39;95048.19;5055592;28;20930;-82
2022/02/05 10:45:40;;;;;;;40.93;21.10;;;;;;;5.81;59.55;95047.28;4969612;28;20443;-81
2022/02/05 10:48:08;;;;;;;39.53;20.50;;;;;;;5.92;58.66;95044.03;4945464;28;20442;-81
2022/02/05 10:50:35;;;;;;;46.10;22.20;;;;;;;5.83;58.95;95047.19;5005488;28;20473;-81
2022/02/05 10:53:07;;;;;;;31.30;20.80;;;;;;;5.67;59.28;95044.72;5013157;28;20495;-80
2022/02/05 10:55:46;;;;;;;42.07;21.23;;;;;;;5.85;57.27;95043.56;5013920;28;20524;-81
2022/02/05 10:58:27;;;;;;;42.00;20.47;;;;;;;5.94;57.70;95047.38;5013217;28;20460;-81
2022/02/05 11:06:23;;;;;;;35.23;20.70;;;;;;;6.11;56.80;95043.69;5013107;28;20497;-81
2022/02/05 11:08:51;;;;;;;35.87;20.10;;;;;;;6.11;57.24;95028.06;5012873;28;20489;-80
2022/02/05 11:17:11;;;;;;;35.37;22.07;;;;;;;6.41;56.45;95025.22;4935577;29;20445;-81
2022/02/05 11:19:38;;;;;;;34.60;20.73;;;;;;;6.47;55.93;95030.84;4972648;28;20521;-82
2022/02/05 11:22:06;;;;;;;40.77;23.27;;;;;;;6.51;55.91;95021.03;4980574;28;20459;-81
2022/02/05 11:28:06;;;;;;;40.43;21.90;;;;;;;6.36;56.13;95016.81;5012841;28;20402;-81
2022/02/05 11:30:42;;;;;;;43.97;26.63;;;;;;;6.51;56.82;95026.25;5012789;28;20442;-81
2022/02/05 11:33:22;;;;;;;39.47;22.90;;;;;;;6.61;56.80;95032.50;5012136;28;20485;-81
2022/02/05 11:36:20;;;;;;;43.70;23.63;;;;;;;6.58;55.97;95031.88;5011871;28;20456;-81
2022/02/05 11:38:58;;;;;;;40.73;24.73;;;;;;;6.64;56.63;95036.69;5012180;28;20436;-81
2022/02/05 11:41:26;;;;;;;35.70;23.67;;;;;;;6.45;57.06;95031.88;5012437;28;20431;-82
2022/02/05 11:44:16;;;;;;;41.23;25.93;;;;;;;6.48;56.75;95029.06;5012291;28;20497;-82
2022/02/05 11:47:03;;;;;;;51.70;28.20;;;;;;;6.50;57.91;95025.41;5011133;28;20439;-80
2022/02/05 11:50:15;;;;;;;42.77;26.33;;;;;;;6.45;56.29;95026.66;5012095;28;20501;-81
2022/02/05 11:53:07;;;;;;;36.87;25.47;;;;;;;6.59;56.36;95018.75;5074012;28;20491;-81
2022/02/05 11:55:46;;;;;;;42.77;24.20;;;;;;;6.68;56.51;95010.31;5074174;28;20432;-82
2022/02/05 11:58:16;;;;;;;43.90;26.73;;;;;;;6.80;57.05;95008.66;5074017;28;20479;-82
2022/02/05 12:00:57;;;;;;;41.93;26.33;;;;;;;6.97;56.92;95002.28;5073515;28;20445;-81
2022/02/05 12:03:34;;;;;;;43.50;24.37;;;;;;;7.03;56.55;95001.84;5039402;28;20444;-82
2022/02/05 12:06:07;;;;;;;44.63;26.60;;;;;;;7.10;56.58;94993.50;5073869;28;20451;-82
2022/02/05 12:08:41;;;;;;;42.43;25.83;;;;;;;7.24;56.60;94997.75;5074142;28;20482;-81
2022/02/05 12:11:35;;;;;;;44.93;26.33;;;;;;;7.43;56.50;94992.06;5073538;28;20980;-81
2022/02/05 12:14:09;;;;;;;40.83;26.47;;;;;;;7.58;56.41;94987.53;5073959;28;20952;-81
2022/02/05 12:16:38;;;;;;;43.73;28.03;;;;;;;7.71;56.59;94988.31;5073733;28;20452;-80
2022/02/05 12:19:15;;;;;;;43.10;26.67;;;;;;;7.80;56.20;94982.41;5073298;28;20486;-81
2022/02/05 12:22:04;;;;;;;49.07;27.10;;;;;;;8.01;55.51;94983.47;5073758;28;20467;-81
2022/02/05 12:25:04;;;;;;;44.03;29.40;;;;;;;8.08;54.97;94987.31;5074049;28;20445;-81
2022/02/05 12:27:33;;;;;;;65.20;27.97;;;;;;;8.23;54.52;94989.75;5073981;28;20841;-81
2022/02/05 12:30:36;;;;;;;50.17;28.63;;;;;;;8.37;55.13;94981.72;5073136;28;20503;-81
2022/02/05 12:33:06;;;;;;;44.13;28.07;;;;;;;8.47;54.46;94980.13;5054611;28;20481;-81
2022/02/05 12:35:33;;;;;;;54.13;29.23;;;;;;;8.54;54.30;94973.47;5072998;28;20953;-80
2022/02/05 12:38:02;;;;;;;46.60;28.67;;;;;;;8.70;53.40;94973.16;5073238;28;20461;-80
2022/02/05 12:40:30;;;;;;;48.57;27.97;;;;;;;8.74;53.01;94977.19;5072237;28;20450;-80
2022/02/05 12:42:59;;;;;;;46.83;28.60;;;;;;;8.86;52.35;94970.19;5072010;28;20460;-80
2022/02/05 12:45:44;;;;;;;48.33;28.37;;;;;;;8.99;51.62;94977.00;5071851;28;20442;-81
2022/02/05 12:48:13;;;;;;;48.13;29.10;;;;;;;9.05;53.19;94977.47;5072295;28;20442;-81
2022/02/05 12:50:43;;;;;;;53.23;34.33;;;;;;;9.03;53.17;94974.97;5071872;28;20487;-82
2022/02/05 12:53:11;;;;;;;69.17;35.37;;;;;;;8.58;53.65;94968.84;5072858;28;20519;-81
2022/02/05 12:55:45;;;;;;;44.43;30.67;;;;;;;8.64;54.37;94969.19;5073006;28;20449;-81
2022/02/05 12:58:14;;;;;;;56.90;34.17;;;;;;;8.56;53.90;94970.72;5073375;28;20513;-81
2022/02/05 13:00:43;;;;;;;72.20;34.33;;;;;;;8.60;54.07;94966.94;5038691;28;20452;-80
2022/02/05 13:03:27;;;;;;;62.30;33.67;;;;;;;8.86;53.92;94968.41;5073281;28;20414;-80
2022/02/05 13:05:54;;;;;;;53.13;32.03;;;;;;;9.00;53.66;94962.94;5073016;28;20435;-83
2022/02/05 13:08:21;;;;;;;53.97;29.57;;;;;;;9.12;53.30;94955.91;5073305;28;20799;-82
2022/02/05 13:10:49;;;;;;;41.83;28.33;;;;;;;9.15;52.89;94960.91;5073142;28;20435;-80
2022/02/05 13:13:16;;;;;;;50.50;29.60;;;;;;;9.30;52.52;94956.28;5076546;28;20509;-82
2022/02/05 13:15:43;;;;;;;48.10;34.80;;;;;;;12.27;100.00;94946.78;5078606;28;20443;-90
2022/02/05 13:18:31;;;;;;;39.40;25.40;;;;;;;13.39;68.23;94957.53;5079663;28;20935;-88
2022/02/05 13:26:24;;;;;;;47.10;31.03;;;;;;;12.15;45.82;94953.16;5076815;28;20571;-83
2022/02/05 13:29:17;;;;;;;49.23;28.50;;;;;;;11.97;46.09;94950.38;5057552;28;20444;-80
2022/02/05 13:34:34;;;;;;;47.40;30.07;;;;;;;10.94;48.66;94948.91;5076723;28;20582;-80
2022/02/05 13:40:29;;;;;;;42.10;24.27;;;;;;;9.99;51.22;94941.09;5076512;28;20494;-83
2022/02/05 13:43:06;;;;;;;48.63;26.50;;;;;;;9.75;52.15;94946.53;5076904;28;20493;-80
2022/02/05 13:45:37;;;;;;;50.20;27.40;;;;;;;9.78;52.77;94950.69;5076607;28;20538;-81
2022/02/05 13:48:05;;;;;;;41.77;26.10;;;;;;;9.70;51.79;94948.69;5068270;28;20451;-80
2022/02/05 13:50:33;;;;;;;38.47;24.83;;;;;;;9.83;52.35;94967.72;5076385;28;20567;-80